WAT5842 KAUS-KMFE
Flight info
| Callsign | WAT5842 |
|---|---|
| Flight time | 0h 51m |
| Altitude | 33000 |
| Route | BNDIA3 BNDIA ICEMN J25 CRP/N0439F320 JIMIE |
| Aircraft | E190/M-SDE1E2E3FGHIJ3J4J7P2RWXY/LB1D1G1 |
Departure
| Time | 2026-04-29 01:39 |
|---|---|
| Airport | Austin Bergstrom International Airport (KAUS) |
Arrival
| Time | 2026-04-29 02:30 |
|---|---|
| Airport | McAllen Miller International Airport (KMFE) |
| Time | Latitude | Longitude | Altitude | Speed | Heading |
|---|---|---|---|---|---|
| 2026-04-29 01:07 | 30.19409 | -97.67100 | 498 ft | 0 kts | 179° |
| 2026-04-29 01:25 | 30.19411 | -97.67100 | 498 ft | 1 kts | 179° |
| 2026-04-29 01:25 | 30.19426 | -97.67100 | 498 ft | 2 kts | 180° |
| 2026-04-29 01:26 | 30.19440 | -97.67097 | 498 ft | 2 kts | 207° |
| 2026-04-29 01:26 | 30.19453 | -97.67087 | 498 ft | 2 kts | 227° |
| 2026-04-29 01:26 | 30.19461 | -97.67072 | 498 ft | 2 kts | 248° |
| 2026-04-29 01:26 | 30.19465 | -97.67058 | 498 ft | 0 kts | 266° |
| 2026-04-29 01:27 | 30.19465 | -97.67050 | 498 ft | 1 kts | 269° |
| 2026-04-29 01:27 | 30.19465 | -97.67049 | 498 ft | 0 kts | 269° |
| 2026-04-29 01:30 | 30.19465 | -97.67055 | 498 ft | 1 kts | 269° |
| 2026-04-29 01:31 | 30.19464 | -97.67067 | 498 ft | 1 kts | 269° |
| 2026-04-29 01:31 | 30.19464 | -97.67084 | 498 ft | 2 kts | 269° |
| 2026-04-29 01:31 | 30.19464 | -97.67107 | 498 ft | 3 kts | 268° |
| 2026-04-29 01:31 | 30.19465 | -97.67135 | 499 ft | 3 kts | 276° |
| 2026-04-29 01:32 | 30.19467 | -97.67175 | 499 ft | 5 kts | 269° |
| 2026-04-29 01:32 | 30.19440 | -97.67215 | 499 ft | 8 kts | 196° |
| 2026-04-29 01:32 | 30.19407 | -97.67272 | 499 ft | 10 kts | 274° |
| 2026-04-29 01:32 | 30.19461 | -97.67322 | 499 ft | 11 kts | 358° |
| 2026-04-29 01:33 | 30.19548 | -97.67324 | 500 ft | 13 kts | 359° |
| 2026-04-29 01:33 | 30.19647 | -97.67326 | 501 ft | 14 kts | 359° |
| 2026-04-29 01:33 | 30.19756 | -97.67327 | 502 ft | 16 kts | 358° |
| 2026-04-29 01:33 | 30.19869 | -97.67326 | 504 ft | 14 kts | 28° |
| 2026-04-29 01:34 | 30.19896 | -97.67212 | 503 ft | 16 kts | 88° |
| 2026-04-29 01:34 | 30.19899 | -97.67065 | 502 ft | 19 kts | 89° |
| 2026-04-29 01:34 | 30.19902 | -97.66895 | 501 ft | 22 kts | 89° |
| 2026-04-29 01:34 | 30.19906 | -97.66708 | 499 ft | 19 kts | 86° |
| 2026-04-29 01:35 | 30.19909 | -97.66545 | 498 ft | 21 kts | 89° |
| 2026-04-29 01:35 | 30.19911 | -97.66379 | 496 ft | 20 kts | 89° |
| 2026-04-29 01:35 | 30.19915 | -97.66224 | 494 ft | 20 kts | 87° |
| 2026-04-29 01:35 | 30.19921 | -97.66071 | 491 ft | 13 kts | 86° |
| 2026-04-29 01:36 | 30.19970 | -97.65994 | 491 ft | 13 kts | 6° |
| 2026-04-29 01:36 | 30.20067 | -97.65997 | 492 ft | 14 kts | 358° |
| 2026-04-29 01:36 | 30.20169 | -97.65998 | 493 ft | 14 kts | 359° |
| 2026-04-29 01:36 | 30.20269 | -97.66000 | 494 ft | 14 kts | 359° |
| 2026-04-29 01:37 | 30.20351 | -97.65990 | 494 ft | 11 kts | 32° |
| 2026-04-29 01:37 | 30.20373 | -97.65923 | 494 ft | 0 kts | 88° |
| 2026-04-29 01:37 | 30.20373 | -97.65912 | 494 ft | 3 kts | 89° |
| 2026-04-29 01:37 | 30.20373 | -97.65864 | 493 ft | 9 kts | 90° |
| 2026-04-29 01:38 | 30.20349 | -97.65791 | 492 ft | 12 kts | 163° |
| 2026-04-29 01:38 | 30.20334 | -97.65788 | 492 ft | 0 kts | 174° |
| 2026-04-29 01:38 | 30.20313 | -97.65787 | 492 ft | 25 kts | 176° |
| 2026-04-29 01:38 | 30.19794 | -97.65771 | 488 ft | 118 kts | 178° |
| 2026-04-29 01:39 | 30.18768 | -97.65727 | 754 ft | 164 kts | 176° |
| 2026-04-29 01:39 | 30.17634 | -97.65665 | 1823 ft | 162 kts | 177° |
| 2026-04-29 01:39 | 30.16665 | -97.65620 | 3089 ft | 140 kts | 178° |
| 2026-04-29 01:39 | 30.15733 | -97.65562 | 4001 ft | 135 kts | 178° |
| 2026-04-29 01:40 | 30.14813 | -97.65485 | 4718 ft | 132 kts | 179° |
| 2026-04-29 01:40 | 30.13814 | -97.65385 | 4964 ft | 161 kts | 178° |
| 2026-04-29 01:40 | 30.12563 | -97.65261 | 5019 ft | 200 kts | 178° |
| 2026-04-29 01:40 | 30.11036 | -97.65132 | 5010 ft | 238 kts | 177° |
| 2026-04-29 01:41 | 30.09249 | -97.65003 | 4922 ft | 279 kts | 178° |
| 2026-04-29 01:41 | 30.07154 | -97.64867 | 4949 ft | 314 kts | 178° |
| 2026-04-29 01:41 | 30.04922 | -97.65136 | 4953 ft | 329 kts | 200° |
| 2026-04-29 01:41 | 30.03249 | -97.66657 | 6038 ft | 297 kts | 243° |
| 2026-04-29 01:42 | 30.02839 | -97.68649 | 7896 ft | 257 kts | 271° |
| 2026-04-29 01:42 | 30.03314 | -97.70635 | 8713 ft | 262 kts | 292° |
| 2026-04-29 01:42 | 30.04072 | -97.72607 | 9283 ft | 277 kts | 292° |
| 2026-04-29 01:42 | 30.04862 | -97.74654 | 9937 ft | 288 kts | 292° |
| 2026-04-29 01:43 | 30.05666 | -97.76788 | 10689 ft | 294 kts | 288° |
| 2026-04-29 01:43 | 30.06117 | -97.79099 | 11455 ft | 300 kts | 274° |
| 2026-04-29 01:43 | 30.06200 | -97.81531 | 11905 ft | 312 kts | 268° |
| 2026-04-29 01:43 | 30.06100 | -97.84093 | 11970 ft | 311 kts | 265° |
| 2026-04-29 01:44 | 30.05919 | -97.86626 | 12134 ft | 329 kts | 264° |
| 2026-04-29 01:44 | 30.05699 | -97.89249 | 12981 ft | 332 kts | 263° |
| 2026-04-29 01:44 | 30.05465 | -97.91849 | 14131 ft | 327 kts | 263° |
| 2026-04-29 01:44 | 30.05037 | -97.94351 | 15279 ft | 322 kts | 247° |
| 2026-04-29 01:45 | 30.03772 | -97.96448 | 16250 ft | 324 kts | 231° |
| 2026-04-29 01:45 | 30.02284 | -97.98352 | 17097 ft | 327 kts | 231° |
| 2026-04-29 01:45 | 30.00753 | -98.00298 | 17884 ft | 331 kts | 231° |
| 2026-04-29 01:45 | 29.99213 | -98.02253 | 18629 ft | 335 kts | 231° |
| 2026-04-29 01:46 | 29.97641 | -98.04245 | 19368 ft | 338 kts | 231° |
| 2026-04-29 01:46 | 29.96056 | -98.06252 | 20071 ft | 342 kts | 232° |
| 2026-04-29 01:46 | 29.94456 | -98.08278 | 20769 ft | 345 kts | 232° |
| 2026-04-29 01:46 | 29.92842 | -98.10319 | 21453 ft | 347 kts | 232° |
| 2026-04-29 01:47 | 29.91209 | -98.12383 | 22140 ft | 349 kts | 232° |
| 2026-04-29 01:47 | 29.89595 | -98.14423 | 22765 ft | 352 kts | 232° |
| 2026-04-29 01:47 | 29.87946 | -98.16505 | 23414 ft | 355 kts | 232° |
| 2026-04-29 01:47 | 29.86281 | -98.18607 | 24024 ft | 358 kts | 232° |
| 2026-04-29 01:48 | 29.84609 | -98.20717 | 24609 ft | 360 kts | 233° |
| 2026-04-29 01:48 | 29.82936 | -98.22827 | 25150 ft | 364 kts | 233° |
| 2026-04-29 01:48 | 29.81210 | -98.25002 | 25698 ft | 367 kts | 233° |
| 2026-04-29 01:48 | 29.79494 | -98.27163 | 26261 ft | 369 kts | 233° |
| 2026-04-29 01:49 | 29.77782 | -98.29318 | 26780 ft | 371 kts | 233° |
| 2026-04-29 01:49 | 29.76049 | -98.31499 | 27289 ft | 373 kts | 233° |
| 2026-04-29 01:49 | 29.74274 | -98.33730 | 27804 ft | 375 kts | 233° |
| 2026-04-29 01:49 | 29.72506 | -98.35953 | 28262 ft | 378 kts | 233° |
| 2026-04-29 01:50 | 29.70716 | -98.38201 | 28737 ft | 381 kts | 233° |
| 2026-04-29 01:50 | 29.68935 | -98.40437 | 29182 ft | 383 kts | 233° |
| 2026-04-29 01:50 | 29.66934 | -98.42506 | 29587 ft | 395 kts | 224° |
| 2026-04-29 01:50 | 29.64527 | -98.44171 | 30002 ft | 407 kts | 214° |
| 2026-04-29 01:51 | 29.61862 | -98.45367 | 30425 ft | 418 kts | 206° |
| 2026-04-29 01:51 | 29.59014 | -98.46074 | 30771 ft | 433 kts | 196° |
| 2026-04-29 01:51 | 29.55908 | -98.46227 | 31114 ft | 449 kts | 186° |
| 2026-04-29 01:51 | 29.52763 | -98.45778 | 31437 ft | 464 kts | 176° |
| 2026-04-29 01:52 | 29.49613 | -98.44780 | 31788 ft | 471 kts | 173° |
| 2026-04-29 01:52 | 29.46427 | -98.44047 | 32168 ft | 463 kts | 181° |
| 2026-04-29 01:52 | 29.43249 | -98.43604 | 32592 ft | 462 kts | 183° |
| 2026-04-29 01:52 | 29.40039 | -98.43203 | 32855 ft | 461 kts | 183° |
| 2026-04-29 01:53 | 29.36810 | -98.42815 | 32889 ft | 472 kts | 184° |
| 2026-04-29 01:53 | 29.33488 | -98.42418 | 32892 ft | 482 kts | 183° |
| 2026-04-29 01:53 | 29.26710 | -98.41606 | 32884 ft | 490 kts | 183° |
| 2026-04-29 01:54 | 29.19937 | -98.40798 | 32878 ft | 489 kts | 183° |
| 2026-04-29 01:54 | 29.13206 | -98.39997 | 32875 ft | 490 kts | 183° |
| 2026-04-29 01:55 | 29.06477 | -98.39198 | 32876 ft | 491 kts | 182° |
| 2026-04-29 01:55 | 28.99661 | -98.38388 | 32877 ft | 489 kts | 183° |
| 2026-04-29 01:56 | 28.92918 | -98.37589 | 32882 ft | 490 kts | 183° |
| 2026-04-29 01:56 | 28.86106 | -98.36782 | 32881 ft | 490 kts | 183° |
| 2026-04-29 01:57 | 28.79389 | -98.35986 | 32416 ft | 477 kts | 182° |
| 2026-04-29 01:57 | 28.76112 | -98.35611 | 31927 ft | 468 kts | 185° |
| 2026-04-29 01:57 | 28.72885 | -98.35646 | 31450 ft | 454 kts | 194° |
| 2026-04-29 01:58 | 28.69790 | -98.36142 | 30988 ft | 455 kts | 194° |
| 2026-04-29 01:58 | 28.66575 | -98.36290 | 30524 ft | 464 kts | 187° |
| 2026-04-29 01:58 | 28.63360 | -98.36229 | 30055 ft | 460 kts | 186° |
| 2026-04-29 01:58 | 28.60190 | -98.36127 | 29582 ft | 454 kts | 185° |
| 2026-04-29 01:59 | 28.57061 | -98.36015 | 29110 ft | 449 kts | 185° |
| 2026-04-29 01:59 | 28.53943 | -98.35899 | 28633 ft | 441 kts | 185° |
| 2026-04-29 01:59 | 28.50908 | -98.35786 | 27909 ft | 434 kts | 185° |
| 2026-04-29 01:59 | 28.47919 | -98.35675 | 27086 ft | 430 kts | 185° |
| 2026-04-29 02:00 | 28.44916 | -98.35564 | 26190 ft | 427 kts | 185° |
| 2026-04-29 02:00 | 28.41941 | -98.35453 | 25353 ft | 423 kts | 184° |
| 2026-04-29 02:00 | 28.39049 | -98.35345 | 24583 ft | 417 kts | 184° |
| 2026-04-29 02:00 | 28.36158 | -98.35238 | 23809 ft | 414 kts | 184° |
| 2026-04-29 02:01 | 28.33269 | -98.35130 | 23284 ft | 407 kts | 184° |
| 2026-04-29 02:01 | 28.30460 | -98.35026 | 22998 ft | 402 kts | 184° |
| 2026-04-29 02:01 | 28.27678 | -98.34923 | 22741 ft | 403 kts | 183° |
| 2026-04-29 02:01 | 28.24883 | -98.34819 | 22491 ft | 402 kts | 183° |
| 2026-04-29 02:02 | 28.22063 | -98.34714 | 22225 ft | 401 kts | 183° |
| 2026-04-29 02:02 | 28.19301 | -98.34611 | 21967 ft | 399 kts | 183° |
| 2026-04-29 02:02 | 28.16534 | -98.34509 | 21712 ft | 398 kts | 183° |
| 2026-04-29 02:02 | 28.13763 | -98.34407 | 21454 ft | 395 kts | 183° |
| 2026-04-29 02:03 | 28.11004 | -98.34305 | 21202 ft | 395 kts | 183° |
| 2026-04-29 02:03 | 28.08274 | -98.34204 | 20947 ft | 393 kts | 183° |
| 2026-04-29 02:03 | 28.05553 | -98.34103 | 20692 ft | 391 kts | 183° |
| 2026-04-29 02:03 | 28.02821 | -98.34003 | 20427 ft | 389 kts | 182° |
| 2026-04-29 02:04 | 28.00104 | -98.33902 | 20164 ft | 388 kts | 182° |
| 2026-04-29 02:04 | 27.97411 | -98.33803 | 19920 ft | 386 kts | 182° |
| 2026-04-29 02:04 | 27.94717 | -98.33703 | 19667 ft | 384 kts | 182° |
| 2026-04-29 02:04 | 27.92034 | -98.33604 | 19408 ft | 383 kts | 182° |
| 2026-04-29 02:05 | 27.89368 | -98.33506 | 19148 ft | 381 kts | 182° |
| 2026-04-29 02:05 | 27.86715 | -98.33408 | 18894 ft | 379 kts | 182° |
| 2026-04-29 02:05 | 27.84105 | -98.33312 | 18641 ft | 377 kts | 182° |
| 2026-04-29 02:05 | 27.81472 | -98.33215 | 18375 ft | 376 kts | 182° |
| 2026-04-29 02:06 | 27.78858 | -98.33118 | 18123 ft | 374 kts | 182° |
| 2026-04-29 02:06 | 27.76255 | -98.33023 | 17892 ft | 373 kts | 182° |
| 2026-04-29 02:06 | 27.73644 | -98.32927 | 17625 ft | 371 kts | 181° |
| 2026-04-29 02:06 | 27.71077 | -98.32832 | 17362 ft | 370 kts | 181° |
| 2026-04-29 02:07 | 27.68500 | -98.32738 | 17110 ft | 368 kts | 181° |
| 2026-04-29 02:07 | 27.65945 | -98.32644 | 16872 ft | 366 kts | 181° |
| 2026-04-29 02:07 | 27.63376 | -98.32550 | 16611 ft | 364 kts | 181° |
| 2026-04-29 02:07 | 27.60859 | -98.32457 | 16361 ft | 363 kts | 181° |
| 2026-04-29 02:08 | 27.58329 | -98.32365 | 16114 ft | 361 kts | 181° |
| 2026-04-29 02:08 | 27.55833 | -98.32273 | 15849 ft | 360 kts | 182° |
| 2026-04-29 02:08 | 27.53328 | -98.32182 | 15605 ft | 358 kts | 181° |
| 2026-04-29 02:08 | 27.50817 | -98.32089 | 15354 ft | 357 kts | 181° |
| 2026-04-29 02:09 | 27.48363 | -98.32000 | 15109 ft | 356 kts | 181° |
| 2026-04-29 02:09 | 27.45899 | -98.31910 | 14854 ft | 354 kts | 181° |
| 2026-04-29 02:09 | 27.43399 | -98.31818 | 14609 ft | 353 kts | 181° |
| 2026-04-29 02:09 | 27.40938 | -98.31728 | 14372 ft | 352 kts | 181° |
| 2026-04-29 02:10 | 27.38490 | -98.31639 | 14124 ft | 350 kts | 181° |
| 2026-04-29 02:10 | 27.36060 | -98.31550 | 13873 ft | 348 kts | 181° |
| 2026-04-29 02:10 | 27.33655 | -98.31463 | 13620 ft | 348 kts | 181° |
| 2026-04-29 02:10 | 27.31242 | -98.31374 | 13373 ft | 346 kts | 181° |
| 2026-04-29 02:11 | 27.28811 | -98.31286 | 13126 ft | 345 kts | 181° |
| 2026-04-29 02:11 | 27.26433 | -98.31199 | 12874 ft | 344 kts | 181° |
| 2026-04-29 02:11 | 27.24036 | -98.31112 | 12622 ft | 341 kts | 181° |
| 2026-04-29 02:11 | 27.21702 | -98.31026 | 12363 ft | 325 kts | 181° |
| 2026-04-29 02:12 | 27.19486 | -98.30945 | 12161 ft | 309 kts | 181° |
| 2026-04-29 02:12 | 27.17369 | -98.30868 | 11963 ft | 300 kts | 181° |
| 2026-04-29 02:12 | 27.15276 | -98.30793 | 11786 ft | 301 kts | 181° |
| 2026-04-29 02:12 | 27.13178 | -98.30717 | 11609 ft | 303 kts | 181° |
| 2026-04-29 02:13 | 27.11064 | -98.30640 | 11434 ft | 303 kts | 181° |
| 2026-04-29 02:13 | 27.08956 | -98.30563 | 11258 ft | 303 kts | 181° |
| 2026-04-29 02:13 | 27.06831 | -98.30486 | 11084 ft | 301 kts | 181° |
| 2026-04-29 02:13 | 27.04734 | -98.30410 | 10918 ft | 301 kts | 180° |
| 2026-04-29 02:14 | 27.02631 | -98.30334 | 10752 ft | 300 kts | 180° |
| 2026-04-29 02:14 | 27.00540 | -98.30258 | 10585 ft | 300 kts | 180° |
| 2026-04-29 02:14 | 26.98455 | -98.30182 | 10412 ft | 299 kts | 180° |
| 2026-04-29 02:14 | 26.96369 | -98.30106 | 10235 ft | 298 kts | 180° |
| 2026-04-29 02:15 | 26.94268 | -98.30031 | 10066 ft | 298 kts | 180° |
| 2026-04-29 02:15 | 26.92199 | -98.29955 | 9908 ft | 298 kts | 180° |
| 2026-04-29 02:15 | 26.90101 | -98.29880 | 9719 ft | 298 kts | 180° |
| 2026-04-29 02:15 | 26.88025 | -98.29804 | 9536 ft | 297 kts | 180° |
| 2026-04-29 02:16 | 26.85956 | -98.29730 | 9377 ft | 296 kts | 180° |
| 2026-04-29 02:16 | 26.83895 | -98.29655 | 9211 ft | 294 kts | 180° |
| 2026-04-29 02:16 | 26.81865 | -98.29582 | 9043 ft | 293 kts | 180° |
| 2026-04-29 02:16 | 26.79806 | -98.29507 | 8825 ft | 292 kts | 180° |
| 2026-04-29 02:17 | 26.77778 | -98.29433 | 8562 ft | 289 kts | 180° |
| 2026-04-29 02:17 | 26.75789 | -98.29361 | 8286 ft | 279 kts | 180° |
| 2026-04-29 02:17 | 26.73889 | -98.29293 | 8001 ft | 270 kts | 180° |
| 2026-04-29 02:17 | 26.72015 | -98.29225 | 7717 ft | 262 kts | 180° |
| 2026-04-29 02:18 | 26.70230 | -98.29161 | 7435 ft | 255 kts | 180° |
| 2026-04-29 02:18 | 26.68461 | -98.29097 | 7159 ft | 248 kts | 180° |
| 2026-04-29 02:18 | 26.66745 | -98.29035 | 6890 ft | 242 kts | 179° |
| 2026-04-29 02:18 | 26.65054 | -98.28974 | 6622 ft | 240 kts | 180° |
| 2026-04-29 02:19 | 26.63399 | -98.28915 | 6358 ft | 239 kts | 180° |
| 2026-04-29 02:19 | 26.61711 | -98.28854 | 6099 ft | 238 kts | 179° |
| 2026-04-29 02:19 | 26.60043 | -98.28794 | 5830 ft | 236 kts | 179° |
| 2026-04-29 02:19 | 26.58420 | -98.28735 | 5557 ft | 232 kts | 179° |
| 2026-04-29 02:20 | 26.56803 | -98.28677 | 5286 ft | 230 kts | 179° |
| 2026-04-29 02:20 | 26.55196 | -98.28620 | 5019 ft | 229 kts | 178° |
| 2026-04-29 02:20 | 26.53608 | -98.28563 | 4756 ft | 227 kts | 178° |
| 2026-04-29 02:20 | 26.52023 | -98.28506 | 4532 ft | 221 kts | 178° |
| 2026-04-29 02:21 | 26.50485 | -98.28451 | 4393 ft | 218 kts | 178° |
| 2026-04-29 02:21 | 26.48976 | -98.28396 | 4262 ft | 219 kts | 178° |
| 2026-04-29 02:21 | 26.47445 | -98.28341 | 4145 ft | 218 kts | 177° |
| 2026-04-29 02:21 | 26.45915 | -98.28286 | 4130 ft | 217 kts | 177° |
| 2026-04-29 02:22 | 26.44404 | -98.28233 | 4031 ft | 219 kts | 178° |
| 2026-04-29 02:22 | 26.42956 | -98.28724 | 3880 ft | 223 kts | 214° |
| 2026-04-29 02:22 | 26.41885 | -98.30022 | 3796 ft | 228 kts | 225° |
| 2026-04-29 02:22 | 26.40866 | -98.31387 | 3676 ft | 226 kts | 225° |
| 2026-04-29 02:23 | 26.39863 | -98.32732 | 3551 ft | 226 kts | 225° |
| 2026-04-29 02:23 | 26.38856 | -98.34086 | 3424 ft | 227 kts | 225° |
| 2026-04-29 02:23 | 26.37844 | -98.35446 | 3307 ft | 225 kts | 224° |
| 2026-04-29 02:23 | 26.36848 | -98.36787 | 3149 ft | 224 kts | 224° |
| 2026-04-29 02:24 | 26.35853 | -98.38074 | 2956 ft | 210 kts | 214° |
| 2026-04-29 02:24 | 26.34613 | -98.38548 | 2758 ft | 174 kts | 171° |
| 2026-04-29 02:24 | 26.33574 | -98.38051 | 2710 ft | 161 kts | 151° |
| 2026-04-29 02:25 | 26.31699 | -98.36652 | 2402 ft | 161 kts | 146° |
| 2026-04-29 02:25 | 26.30800 | -98.35911 | 2233 ft | 161 kts | 144° |
| 2026-04-29 02:25 | 26.29904 | -98.35144 | 2057 ft | 160 kts | 144° |
| 2026-04-29 02:25 | 26.29031 | -98.34380 | 1984 ft | 159 kts | 143° |
| 2026-04-29 02:26 | 26.28156 | -98.33603 | 1985 ft | 163 kts | 143° |
| 2026-04-29 02:26 | 26.27292 | -98.32827 | 1985 ft | 158 kts | 143° |
| 2026-04-29 02:26 | 26.26425 | -98.32045 | 1988 ft | 160 kts | 143° |
| 2026-04-29 02:26 | 26.25603 | -98.31299 | 1958 ft | 138 kts | 143° |
| 2026-04-29 02:27 | 26.24918 | -98.30674 | 1934 ft | 117 kts | 144° |
| 2026-04-29 02:27 | 26.24347 | -98.30156 | 1878 ft | 101 kts | 143° |
| 2026-04-29 02:27 | 26.23824 | -98.29647 | 1572 ft | 99 kts | 141° |
| 2026-04-29 02:27 | 26.23312 | -98.29122 | 1241 ft | 100 kts | 140° |
| 2026-04-29 02:28 | 26.22769 | -98.28639 | 1049 ft | 99 kts | 142° |
| 2026-04-29 02:28 | 26.22220 | -98.28157 | 934 ft | 100 kts | 144° |
| 2026-04-29 02:28 | 26.21659 | -98.27661 | 870 ft | 101 kts | 142° |
| 2026-04-29 02:28 | 26.21087 | -98.27160 | 849 ft | 107 kts | 142° |
| 2026-04-29 02:29 | 26.20516 | -98.26631 | 768 ft | 105 kts | 141° |
| 2026-04-29 02:29 | 26.19936 | -98.26108 | 624 ft | 109 kts | 144° |
| 2026-04-29 02:29 | 26.19334 | -98.25600 | 458 ft | 110 kts | 140° |
| 2026-04-29 02:29 | 26.18755 | -98.25056 | 269 ft | 109 kts | 140° |
| 2026-04-29 02:30 | 26.18158 | -98.24501 | 132 ft | 112 kts | 139° |
| 2026-04-29 02:30 | 26.17560 | -98.23961 | 105 ft | 96 kts | 139° |
| 2026-04-29 02:30 | 26.17367 | -98.23768 | 103 ft | 3 kts | 143° |
| 2026-04-29 02:30 | 26.17343 | -98.23728 | 103 ft | 7 kts | 88° |
| 2026-04-29 02:31 | 26.17370 | -98.23705 | 103 ft | 0 kts | 21° |
| 2026-04-29 02:31 | 26.17385 | -98.23698 | 103 ft | 4 kts | 20° |
| 2026-04-29 02:31 | 26.17434 | -98.23700 | 103 ft | 10 kts | 327° |
| 2026-04-29 02:31 | 26.17510 | -98.23766 | 104 ft | 17 kts | 319° |
| 2026-04-29 02:32 | 26.17610 | -98.23861 | 104 ft | 18 kts | 321° |
| 2026-04-29 02:32 | 26.17717 | -98.23955 | 105 ft | 20 kts | 322° |
| 2026-04-29 02:32 | 26.17789 | -98.24019 | 105 ft | 7 kts | 323° |
| 2026-04-29 02:32 | 26.17840 | -98.24017 | 106 ft | 8 kts | 32° |
| 2026-04-29 02:33 | 26.17891 | -98.23983 | 106 ft | 8 kts | 30° |
| 2026-04-29 02:33 | 26.17932 | -98.23956 | 106 ft | 7 kts | 33° |
| 2026-04-29 02:33 | 26.17952 | -98.23942 | 106 ft | 0 kts | 33° |